createdAt,value
2022-09-12T00:00:50.773Z,14.05
2022-09-12T00:03:17.288Z,15.70
2022-09-12T00:05:47.621Z,12.75
2022-09-12T00:08:14.856Z,16.27
2022-09-12T00:10:43.730Z,14.68
2022-09-12T00:13:11.276Z,14.23
2022-09-12T00:15:40.022Z,14.90
2022-09-12T00:18:13.596Z,14.27
2022-09-12T00:20:47.271Z,15.25
2022-09-12T00:23:15.042Z,14.90
2022-09-12T00:25:46.531Z,16.90
2022-09-12T00:28:14.831Z,13.38
2022-09-12T00:30:46.143Z,12.77
2022-09-12T00:33:13.364Z,16.52
2022-09-12T00:35:45.469Z,15.45
2022-09-12T00:38:14.260Z,12.88
2022-09-12T00:40:42.223Z,12.27
2022-09-12T00:43:34.066Z,13.43
2022-09-12T00:46:15.298Z,12.38
2022-09-12T00:48:51.016Z,11.93
2022-09-12T00:51:19.159Z,11.70
2022-09-12T00:53:48.946Z,12.55
2022-09-12T00:56:17.351Z,11.23
2022-09-12T00:58:51.176Z,11.30
2022-09-12T01:01:18.385Z,12.50
2022-09-12T01:03:44.954Z,13.73
2022-09-12T01:06:21.591Z,12.10
2022-09-12T01:08:49.613Z,12.23
2022-09-12T01:11:16.816Z,10.27
2022-09-12T01:13:45.166Z,13.68
2022-09-12T01:16:12.632Z,12.45
2022-09-12T01:19:02.357Z,10.57
2022-09-12T01:22:06.586Z,11.65
2022-09-12T01:25:03.317Z,13.80
2022-09-12T01:28:00.908Z,11.38
2022-09-12T01:30:43.187Z,13.82
2022-09-12T01:33:41.614Z,14.57
2022-09-12T01:36:08.763Z,11.88
2022-09-12T01:38:46.917Z,12.77
2022-09-12T01:41:22.416Z,13.88
2022-09-12T01:44:01.772Z,12.05
2022-09-12T01:46:35.110Z,11.98
2022-09-12T01:49:11.290Z,12.63
2022-09-12T01:52:15.609Z,11.07
2022-09-12T01:54:48.339Z,11.23
2022-09-12T01:57:22.652Z,10.23
2022-09-12T01:59:55.023Z,12.65
2022-09-12T02:02:51.977Z,13.25
2022-09-12T02:08:03.977Z,11.00
2022-09-12T02:10:34.636Z,9.20
2022-09-12T02:13:17.477Z,12.15
2022-09-12T02:15:49.834Z,9.38
2022-09-12T02:18:18.513Z,9.60
2022-09-12T02:20:48.815Z,9.95
2022-09-12T02:23:23.113Z,10.30
2022-09-12T02:25:54.504Z,11.35
2022-09-12T02:28:29.344Z,10.93
2022-09-12T02:31:31.718Z,13.32
2022-09-12T02:34:18.426Z,11.13
2022-09-12T02:37:09.892Z,9.73
2022-09-12T02:39:37.055Z,11.30
2022-09-12T02:42:04.342Z,10.68
2022-09-12T02:44:33.546Z,11.05
2022-09-12T02:47:05.574Z,14.48
2022-09-12T02:49:32.247Z,14.07
2022-09-12T02:51:59.679Z,10.75
2022-09-12T02:54:26.227Z,10.15
2022-09-12T02:56:52.684Z,11.63
2022-09-12T02:59:22.903Z,12.80
2022-09-12T03:02:15.689Z,13.85
2022-09-12T03:05:07.048Z,12.88
2022-09-12T03:08:10.991Z,10.95
2022-09-12T03:10:52.067Z,11.38
2022-09-12T03:13:32.531Z,12.02
2022-09-12T03:16:10.644Z,13.10
2022-09-12T03:18:39.872Z,13.18
2022-09-12T03:21:44.289Z,10.82
2022-09-12T03:24:33.298Z,13.98
2022-09-12T03:27:25.904Z,13.18
2022-09-12T03:29:53.906Z,11.82
2022-09-12T03:32:20.400Z,10.82
2022-09-12T03:34:46.853Z,12.82
2022-09-12T03:37:13.630Z,13.18
2022-09-12T03:39:40.442Z,13.40
2022-09-12T03:42:06.983Z,15.43
2022-09-12T03:44:33.487Z,12.07
2022-09-12T03:47:00.257Z,12.68
2022-09-12T03:49:26.689Z,13.15
2022-09-12T03:51:53.177Z,12.85
2022-09-12T03:54:19.685Z,10.98
2022-09-12T03:56:46.216Z,12.10
2022-09-12T03:59:12.869Z,12.50
2022-09-12T04:01:39.390Z,12.57
2022-09-12T04:04:05.856Z,12.05
2022-09-12T04:06:32.374Z,10.55
2022-09-12T04:08:58.858Z,11.85
2022-09-12T04:11:25.570Z,11.50
2022-09-12T04:13:52.069Z,10.82
2022-09-12T04:16:18.904Z,11.13
2022-09-12T04:18:46.507Z,13.70
2022-09-12T04:21:16.772Z,13.63
2022-09-12T04:23:43.741Z,10.82
2022-09-12T04:26:11.434Z,11.77
2022-09-12T04:28:38.779Z,11.40
2022-09-12T04:31:18.065Z,15.88
2022-09-12T04:33:45.384Z,12.27
2022-09-12T04:36:16.815Z,12.10
2022-09-12T04:38:45.343Z,9.98
2022-09-12T04:41:23.749Z,12.63
2022-09-12T04:44:02.556Z,10.95
2022-09-12T04:46:38.652Z,9.15
2022-09-12T04:51:36.038Z,10.23
2022-09-12T04:54:11.019Z,8.98
2022-09-12T04:56:40.811Z,11.60
2022-09-12T04:59:08.685Z,9.52
2022-09-12T05:01:35.970Z,10.55
2022-09-12T05:04:03.758Z,10.48
2022-09-12T05:06:33.037Z,10.10
2022-09-12T05:09:01.904Z,12.77
2022-09-12T05:11:59.668Z,9.15
2022-09-12T05:14:17.491Z,9.10
2022-09-12T05:16:48.555Z,8.98
2022-09-12T05:19:15.818Z,10.13
2022-09-12T05:21:42.385Z,10.90
2022-09-12T05:24:10.583Z,9.15
2022-09-12T05:26:37.171Z,9.63
2022-09-12T05:29:04.250Z,10.70
2022-09-12T05:31:30.705Z,11.93
2022-09-12T05:33:57.632Z,10.70
2022-09-12T05:36:27.544Z,8.48
2022-09-12T05:38:54.187Z,9.80
2022-09-12T05:41:33.040Z,8.98
2022-09-12T05:44:03.775Z,9.63
2022-09-12T05:46:36.044Z,8.75
2022-09-12T05:49:08.294Z,8.07
2022-09-12T05:51:38.049Z,9.25
2022-09-12T05:54:06.313Z,8.13
2022-09-12T05:56:34.895Z,8.45
2022-09-12T05:59:04.696Z,8.65
2022-09-12T06:01:33.329Z,9.25
2022-09-12T06:04:01.846Z,9.35
2022-09-12T06:06:30.370Z,7.95
2022-09-12T06:09:01.501Z,7.13
2022-09-12T06:11:31.559Z,8.45
2022-09-12T06:13:58.536Z,7.07
2022-09-12T06:16:30.578Z,7.88
2022-09-12T06:18:59.615Z,6.85
2022-09-12T06:21:28.427Z,6.63
2022-09-12T06:23:55.751Z,5.97
2022-09-12T06:26:24.605Z,6.03
2022-09-12T06:28:53.573Z,5.93
2022-09-12T06:31:25.981Z,6.10
2022-09-12T06:33:54.673Z,5.70
2022-09-12T06:36:24.609Z,5.72
2022-09-12T06:38:57.139Z,5.32
2022-09-12T06:41:25.233Z,8.07
2022-09-12T06:43:52.087Z,6.35
2022-09-12T06:46:21.595Z,7.30
2022-09-12T06:48:48.363Z,5.32
2022-09-12T06:51:17.295Z,6.40
2022-09-12T06:53:45.331Z,5.70
2022-09-12T06:56:14.493Z,6.80
2022-09-12T06:58:42.893Z,6.60
2022-09-12T07:01:15.539Z,8.15
2022-09-12T07:03:43.430Z,7.90
2022-09-12T07:06:14.263Z,6.97
2022-09-12T07:08:41.064Z,6.28
2022-09-12T07:11:13.604Z,7.47
2022-09-12T07:13:42.953Z,6.90
2022-09-12T07:16:10.735Z,5.85
2022-09-12T07:18:38.260Z,6.35
2022-09-12T07:21:11.408Z,7.72
2022-09-12T07:23:38.547Z,6.75
2022-09-12T07:26:05.806Z,6.75
2022-09-12T07:28:33.860Z,6.07
2022-09-12T07:31:12.955Z,5.85
2022-09-12T07:33:40.712Z,5.00
2022-09-12T07:36:19.016Z,6.20
2022-09-12T07:38:47.034Z,5.72
2022-09-12T07:41:32.835Z,6.43
2022-09-12T07:44:00.985Z,6.35
2022-09-12T07:46:30.505Z,6.07
2022-09-12T07:48:58.685Z,6.35
2022-09-12T07:51:26.788Z,6.20
2022-09-12T07:53:53.466Z,5.30
2022-09-12T07:56:20.262Z,5.65
2022-09-12T07:58:47.271Z,6.05
2022-09-12T08:01:18.997Z,6.45
2022-09-12T08:03:47.893Z,5.00
2022-09-12T08:06:16.977Z,6.45
2022-09-12T08:08:43.809Z,7.47
2022-09-12T08:11:12.868Z,5.43
2022-09-12T08:13:41.130Z,5.03
2022-09-12T08:16:14.820Z,5.03
2022-09-12T08:18:42.112Z,8.85
2022-09-12T08:21:21.494Z,6.75
2022-09-12T08:23:52.675Z,6.88
2022-09-12T08:26:19.238Z,6.45
2022-09-12T08:28:46.195Z,7.25
2022-09-12T08:31:15.369Z,6.68
2022-09-12T08:33:41.927Z,7.90
2022-09-12T08:36:12.014Z,5.68
2022-09-12T08:38:41.691Z,7.95
2022-09-12T08:41:23.194Z,6.45
2022-09-12T08:44:08.863Z,5.72
2022-09-12T08:49:04.304Z,6.25
2022-09-12T08:51:34.500Z,5.65
2022-09-12T08:54:04.709Z,6.78
2022-09-12T08:56:36.853Z,7.88
2022-09-12T08:59:03.525Z,5.97
2022-09-12T09:01:40.633Z,6.70
2022-09-12T09:04:20.585Z,8.00
2022-09-12T09:07:01.484Z,6.00
2022-09-12T09:09:40.695Z,7.13
2022-09-12T09:12:19.769Z,7.57
2022-09-12T09:14:49.159Z,6.35
2022-09-12T09:17:34.341Z,8.15
2022-09-12T09:20:33.912Z,6.70
2022-09-12T09:23:28.491Z,7.15
2022-09-12T09:26:00.071Z,6.22
2022-09-12T09:28:46.539Z,7.30
2022-09-12T09:31:18.215Z,7.43
2022-09-12T09:33:49.417Z,6.97
2022-09-12T09:36:32.694Z,7.28
2022-09-12T09:39:10.671Z,8.75
2022-09-12T09:41:49.370Z,5.53
2022-09-12T09:44:17.228Z,6.68
2022-09-12T09:46:43.866Z,9.20
2022-09-12T09:49:14.673Z,6.65
2022-09-12T09:51:42.588Z,6.60
2022-09-12T09:54:35.965Z,5.78
2022-09-12T09:57:05.085Z,6.30
2022-09-12T09:59:36.102Z,6.72
2022-09-12T10:02:24.004Z,5.65
2022-09-12T10:04:57.616Z,6.63
2022-09-12T10:07:25.962Z,6.60
2022-09-12T10:10:17.720Z,6.65
2022-09-12T10:12:44.540Z,8.75
2022-09-12T10:15:18.074Z,5.97
2022-09-12T10:17:46.815Z,6.25
2022-09-12T10:20:31.316Z,6.00
2022-09-12T10:23:00.568Z,5.22
2022-09-12T10:25:27.859Z,5.93
2022-09-12T10:27:58.507Z,5.45
2022-09-12T10:30:28.412Z,7.00
2022-09-12T10:33:07.649Z,6.18
2022-09-12T10:35:45.628Z,7.18
2022-09-12T10:38:25.173Z,4.80
2022-09-12T10:41:10.099Z,5.60
2022-09-12T10:43:41.676Z,4.78
2022-09-12T10:46:22.366Z,9.32
2022-09-12T10:48:51.702Z,5.38
2022-09-12T10:51:23.928Z,7.03
2022-09-12T10:53:56.629Z,5.55
2022-09-12T10:56:28.651Z,5.65
2022-09-12T10:59:19.951Z,5.88
2022-09-12T11:01:59.935Z,4.80
2022-09-12T11:04:39.917Z,4.90
2022-09-12T11:07:15.777Z,5.93
2022-09-12T11:09:52.962Z,4.68
2022-09-12T11:12:19.690Z,5.93
2022-09-12T11:15:34.868Z,7.03
2022-09-12T11:18:51.095Z,7.05
2022-09-12T11:21:23.284Z,4.90
2022-09-12T11:24:33.468Z,6.20
2022-09-12T11:27:18.071Z,6.10
2022-09-12T11:30:15.085Z,5.57
2022-09-12T11:32:57.050Z,5.75
2022-09-12T11:35:32.835Z,5.88
2022-09-12T11:38:18.990Z,5.82
2022-09-12T11:40:55.873Z,8.75
2022-09-12T11:43:31.257Z,8.23
2022-09-12T11:46:07.831Z,5.28
2022-09-12T11:49:06.508Z,5.28
2022-09-12T11:51:39.799Z,6.30
2022-09-12T11:54:27.985Z,9.40
2022-09-12T11:57:30.617Z,6.05
2022-09-12T12:00:02.850Z,5.40
2022-09-12T12:02:43.698Z,6.53
2022-09-12T12:05:34.407Z,5.57
2022-09-12T12:08:04.816Z,8.05
2022-09-12T12:10:59.150Z,7.13
2022-09-12T12:13:31.607Z,5.40
2022-09-12T12:16:02.101Z,7.45
2022-09-12T12:18:30.223Z,6.13
2022-09-12T12:21:15.812Z,6.20
2022-09-12T12:24:12.895Z,4.43
2022-09-12T12:26:42.362Z,5.20
2022-09-12T12:29:32.810Z,5.30
2022-09-12T12:31:59.384Z,5.95
2022-09-12T12:34:32.071Z,5.60
2022-09-12T12:37:03.182Z,5.72
2022-09-12T12:39:32.000Z,7.13
2022-09-12T12:42:02.895Z,5.65
2022-09-12T12:44:44.873Z,5.72
2022-09-12T12:47:19.801Z,6.28
2022-09-12T12:49:59.741Z,7.13
2022-09-12T12:52:32.329Z,6.05
2022-09-12T12:55:01.689Z,6.55
2022-09-12T12:57:56.333Z,6.95
2022-09-12T13:00:29.873Z,4.18
2022-09-12T13:03:17.952Z,5.43
2022-09-12T13:05:51.527Z,5.25
2022-09-12T13:08:22.374Z,6.60
2022-09-12T13:10:56.481Z,5.00
2022-09-12T13:13:36.420Z,5.13
2022-09-12T13:16:10.144Z,6.53
2022-09-12T13:18:55.709Z,6.75
2022-09-12T13:21:23.240Z,5.40
2022-09-12T13:24:05.176Z,6.30
2022-09-12T13:26:40.598Z,5.40
2022-09-12T13:29:24.679Z,6.70
2022-09-12T13:31:59.898Z,5.70
2022-09-12T13:34:45.341Z,4.72
2022-09-12T13:37:36.676Z,7.63
2022-09-12T13:40:26.985Z,4.97
2022-09-12T13:43:17.736Z,5.30
2022-09-12T13:45:47.001Z,5.20
2022-09-12T13:48:19.083Z,5.00
2022-09-12T13:50:56.055Z,5.38
2022-09-12T13:53:25.910Z,6.30
2022-09-12T13:55:58.281Z,5.45
2022-09-12T13:58:30.601Z,6.18
2022-09-12T14:01:15.938Z,6.90
2022-09-12T14:04:08.552Z,5.15
2022-09-12T14:06:46.614Z,5.78
2022-09-12T14:09:25.330Z,5.28
2022-09-12T14:11:53.137Z,6.47
2022-09-12T14:14:43.992Z,5.03
2022-09-12T14:17:29.439Z,6.53
2022-09-12T14:19:59.930Z,7.85
2022-09-12T14:22:29.944Z,6.57
2022-09-12T14:24:58.743Z,7.72
2022-09-12T14:28:04.588Z,8.05
2022-09-12T14:30:34.474Z,5.25
2022-09-12T14:33:09.998Z,7.38
2022-09-12T14:35:41.430Z,5.63
2022-09-12T14:38:15.683Z,8.75
2022-09-12T14:40:44.869Z,6.05
2022-09-12T14:43:31.786Z,7.13
2022-09-12T14:46:07.384Z,5.18
2022-09-12T14:48:42.684Z,6.53
2022-09-12T14:51:21.279Z,7.20
2022-09-12T14:53:49.804Z,10.40
2022-09-12T14:56:16.465Z,6.15
2022-09-12T14:58:43.094Z,8.20
2022-09-12T15:01:12.373Z,7.70
2022-09-12T15:03:59.323Z,6.38
2022-09-12T15:06:31.369Z,6.70
2022-09-12T15:09:00.828Z,5.07
2022-09-12T15:11:27.531Z,7.40
2022-09-12T15:13:54.484Z,7.50
2022-09-12T15:16:21.089Z,6.35
2022-09-12T15:18:47.664Z,6.03
2022-09-12T15:21:20.251Z,8.00
2022-09-12T15:23:51.436Z,6.53
2022-09-12T15:26:23.497Z,7.13
2022-09-12T15:28:51.147Z,8.20
2022-09-12T15:31:26.528Z,7.10
2022-09-12T15:33:54.026Z,6.13
2022-09-12T15:36:22.787Z,5.53
2022-09-12T15:38:49.970Z,6.50
2022-09-12T15:41:23.218Z,5.85
2022-09-12T15:43:50.398Z,8.20
2022-09-12T15:46:19.114Z,7.85
2022-09-12T15:48:45.878Z,6.10
2022-09-12T15:51:18.751Z,6.82
2022-09-12T15:53:45.999Z,7.57
2022-09-12T15:56:12.711Z,7.53
2022-09-12T15:58:54.719Z,9.13
2022-09-12T16:01:24.310Z,7.97
2022-09-12T16:03:50.858Z,5.65
2022-09-12T16:06:17.412Z,6.47
2022-09-12T16:08:43.996Z,8.68
2022-09-12T16:11:16.906Z,7.53
2022-09-12T16:13:43.363Z,6.75
2022-09-12T16:16:10.089Z,7.57
2022-09-12T16:18:39.105Z,7.85
2022-09-12T16:21:05.816Z,9.30
2022-09-12T16:23:32.895Z,7.20
2022-09-12T16:26:05.045Z,8.88
2022-09-12T16:28:33.318Z,9.23
2022-09-12T16:31:05.836Z,6.70
2022-09-12T16:33:33.100Z,8.50
2022-09-12T16:36:10.499Z,6.85
2022-09-12T16:38:42.183Z,9.60
2022-09-12T16:41:08.725Z,6.57
2022-09-12T16:43:37.064Z,7.47
2022-09-12T16:46:09.880Z,6.05
2022-09-12T16:48:36.848Z,12.10
2022-09-12T16:51:06.939Z,8.88
2022-09-12T16:53:35.057Z,8.25
2022-09-12T16:56:01.748Z,6.82
2022-09-12T16:58:28.413Z,6.63
2022-09-12T17:01:05.578Z,8.38
2022-09-12T17:03:32.097Z,10.05
2022-09-12T17:06:20.933Z,10.77
2022-09-12T17:08:50.398Z,11.10
2022-09-12T17:11:19.728Z,9.32
2022-09-12T17:14:04.586Z,9.73
2022-09-12T17:16:34.422Z,10.00
2022-09-12T17:19:00.968Z,7.68
2022-09-12T17:21:27.713Z,8.85
2022-09-12T17:23:54.511Z,7.97
2022-09-12T17:26:21.242Z,9.10
2022-09-12T17:28:48.224Z,9.93
2022-09-12T17:31:15.108Z,11.25
2022-09-12T17:33:42.407Z,10.32
2022-09-12T17:36:17.752Z,11.95
2022-09-12T17:38:46.111Z,8.70
2022-09-12T17:41:18.918Z,9.70
2022-09-12T17:43:49.387Z,9.88
2022-09-12T17:46:16.115Z,10.30
2022-09-12T17:48:42.859Z,9.50
2022-09-12T17:51:11.755Z,9.38
2022-09-12T17:53:38.670Z,8.50
2022-09-12T17:56:06.380Z,9.18
2022-09-12T17:58:34.083Z,9.32
2022-09-12T18:01:31.133Z,8.10
2022-09-12T18:04:00.600Z,8.73
2022-09-12T18:06:29.070Z,11.50
2022-09-12T18:09:02.321Z,8.70
2022-09-12T18:11:29.899Z,9.68
2022-09-12T18:13:58.525Z,10.40
2022-09-12T18:16:25.919Z,8.82
2022-09-12T18:18:52.572Z,9.85
2022-09-12T18:21:19.853Z,10.77
2022-09-12T18:23:47.076Z,10.70
2022-09-12T18:26:14.283Z,8.55
2022-09-12T18:28:43.388Z,9.02
2022-09-12T18:31:18.075Z,9.82
2022-09-12T18:33:45.025Z,12.88
2022-09-12T18:36:13.359Z,9.40
2022-09-12T18:38:41.199Z,12.57
2022-09-12T18:41:10.310Z,10.20
2022-09-12T18:43:37.655Z,10.00
2022-09-12T18:46:06.611Z,12.38
2022-09-12T18:48:34.287Z,12.45
2022-09-12T18:51:05.673Z,14.60
2022-09-12T18:53:36.772Z,13.57
2022-09-12T18:56:08.738Z,19.42
2022-09-12T18:58:40.704Z,17.27
2022-09-12T19:01:11.777Z,11.65
2022-09-12T19:03:38.609Z,10.23
2022-09-12T19:06:26.289Z,10.23
2022-09-12T19:08:54.305Z,10.35
2022-09-12T19:11:23.127Z,11.70
2022-09-12T19:13:51.910Z,9.50
2022-09-12T19:16:21.776Z,34.60
2022-09-12T19:18:49.898Z,12.25
2022-09-12T19:21:19.213Z,13.48
2022-09-12T19:23:46.361Z,10.45
2022-09-12T19:26:15.073Z,12.68
2022-09-12T19:28:42.396Z,11.90
2022-09-12T19:31:14.890Z,13.10
2022-09-12T19:33:42.277Z,12.02
2022-09-12T19:36:33.652Z,11.93
2022-09-12T19:39:00.144Z,19.73
2022-09-12T19:41:26.715Z,12.23
2022-09-12T19:43:54.626Z,14.88
2022-09-12T19:46:22.701Z,15.27
2022-09-12T19:48:49.688Z,10.93
2022-09-12T19:51:18.631Z,16.58
2022-09-12T19:53:46.043Z,10.88
2022-09-12T19:56:14.094Z,11.48
2022-09-12T19:58:43.114Z,10.60
2022-09-12T20:01:15.327Z,10.93
2022-09-12T20:03:43.777Z,11.40
2022-09-12T20:06:13.946Z,13.85
2022-09-12T20:08:42.255Z,11.10
2022-09-12T20:11:10.219Z,12.02
2022-09-12T20:13:36.902Z,10.95
2022-09-12T20:16:20.377Z,11.27
2022-09-12T20:18:52.226Z,10.30
2022-09-12T20:21:20.810Z,11.70
2022-09-12T20:23:47.672Z,11.82
2022-09-12T20:26:14.244Z,12.48
2022-09-12T20:28:42.045Z,11.60
2022-09-12T20:31:12.195Z,12.07
2022-09-12T20:33:39.468Z,14.48
2022-09-12T20:36:09.386Z,13.57
2022-09-12T20:38:36.753Z,13.98
2022-09-12T20:41:06.752Z,14.98
2022-09-12T20:43:33.514Z,14.73
2022-09-12T20:46:00.164Z,20.13
2022-09-12T20:48:26.753Z,17.38
2022-09-12T20:50:54.978Z,17.33
2022-09-12T20:53:21.462Z,14.70
2022-09-12T20:55:52.474Z,16.35
2022-09-12T20:58:22.033Z,12.88
2022-09-12T21:00:49.263Z,16.67
2022-09-12T21:03:16.890Z,14.07
2022-09-12T21:05:44.344Z,15.13
2022-09-12T21:08:11.812Z,12.80
2022-09-12T21:10:41.736Z,15.73
2022-09-12T21:13:12.966Z,13.63
2022-09-12T21:15:40.734Z,13.60
2022-09-12T21:18:07.532Z,17.92
2022-09-12T21:20:34.502Z,13.95
2022-09-12T21:23:01.312Z,13.98
2022-09-12T21:25:30.261Z,16.45
2022-09-12T21:27:57.268Z,12.07
2022-09-12T21:30:24.004Z,15.65
2022-09-12T21:32:50.492Z,12.80
2022-09-12T21:35:17.125Z,14.10
2022-09-12T21:37:43.807Z,13.48
2022-09-12T21:40:10.867Z,20.35
2022-09-12T21:42:37.798Z,15.93
2022-09-12T21:45:05.153Z,16.30
2022-09-12T21:47:31.730Z,16.30
2022-09-12T21:49:59.900Z,18.00
2022-09-12T21:52:28.135Z,18.17
2022-09-12T21:54:54.617Z,20.85
2022-09-12T21:57:22.160Z,18.90
2022-09-12T21:59:48.773Z,12.48
2022-09-12T22:02:16.111Z,14.77
2022-09-12T22:04:42.903Z,17.10
2022-09-12T22:07:09.437Z,13.05
2022-09-12T22:09:35.906Z,15.52
2022-09-12T22:12:02.762Z,13.35
2022-09-12T22:14:29.703Z,15.23
2022-09-12T22:16:56.939Z,14.68
2022-09-12T22:19:23.573Z,15.82
2022-09-12T22:22:11.744Z,17.70
2022-09-12T22:24:39.189Z,16.92
2022-09-12T22:27:07.206Z,15.45
2022-09-12T22:29:34.509Z,14.23
2022-09-12T22:32:01.404Z,16.98
2022-09-12T22:34:28.958Z,17.17
2022-09-12T22:36:56.545Z,16.73
2022-09-12T22:39:23.625Z,16.45
2022-09-12T22:41:50.151Z,16.83
2022-09-12T22:44:20.196Z,18.80
2022-09-12T22:46:46.869Z,16.45
2022-09-12T22:49:13.462Z,16.73
2022-09-12T22:51:39.986Z,14.75
2022-09-12T22:54:07.102Z,16.63
2022-09-12T22:56:33.874Z,15.88
2022-09-12T22:59:01.228Z,16.02
2022-09-12T23:01:27.737Z,12.60
2022-09-12T23:03:54.372Z,15.75
2022-09-12T23:06:21.272Z,13.05
2022-09-12T23:08:47.779Z,14.10
2022-09-12T23:11:16.888Z,13.38
2022-09-12T23:13:45.695Z,15.10
2022-09-12T23:16:24.009Z,12.48
2022-09-12T23:18:50.981Z,15.38
2022-09-12T23:21:19.690Z,14.18
2022-09-12T23:23:47.313Z,15.85
2022-09-12T23:26:19.433Z,16.50
2022-09-12T23:28:52.811Z,19.20
2022-09-12T23:31:21.188Z,15.85
2022-09-12T23:33:50.168Z,15.48
2022-09-12T23:36:16.757Z,19.52
2022-09-12T23:38:45.113Z,41.75
2022-09-12T23:41:13.697Z,14.40
2022-09-12T23:43:40.514Z,11.68
2022-09-12T23:46:07.472Z,15.70
2022-09-12T23:48:34.539Z,13.25
2022-09-12T23:51:01.493Z,15.80
2022-09-12T23:53:29.591Z,14.57
2022-09-12T23:55:56.191Z,15.68
2022-09-12T23:58:25.334Z,30.02
